.
WxDataArchive / Data Records for 2009-07-20
2009-07-19 July 2009 2009-07-21

Data Records for Monday, 20 July 2009

Time	Temp	Chill	HIndex	Humid	Dewpt	 Wind 	HiWind	WindDir	Rain 	Barom 
-----	----	-----	------	-----	-----	------	------	-------	-----	----- 
00:00	59.0	59.0	59.0	95	57.6	0	0	---	0.00	30.135 
00:05	59.0	59.0	59.0	95	57.6	0	0	---	0.00	30.135 
00:10	59.0	59.0	59.0	95	57.6	0	0	---	0.00	30.135 
00:15	59.0	59.0	59.0	95	57.6	0	0	---	0.00	30.135 
00:20	59.0	59.0	59.0	96	57.9	0	0	---	0.00	30.135 
00:25	59.0	59.0	59.0	96	57.9	0	0	---	0.00	30.135 
00:30	59.0	59.0	59.0	96	57.9	0	0	---	0.00	30.137 
00:35	59.0	59.0	59.0	96	57.9	0	0	---	0.00	30.137 
00:40	59.0	59.0	59.0	96	57.9	0	0	---	0.00	30.137 
00:45	58.9	58.9	58.9	96	57.8	0	0	---	0.00	30.136 
00:50	58.9	58.9	58.9	96	57.8	0	0	---	0.00	30.136 
00:55	58.9	58.9	58.9	96	57.8	0	0	---	0.00	30.136 
01:00	58.7	58.7	58.7	96	57.6	0	0	---	0.00	30.137 
01:05	58.6	58.6	58.6	96	57.5	0	0	---	0.00	30.137 
01:10	58.4	58.4	58.4	96	57.3	0	0	---	0.00	30.137 
01:15	58.3	58.3	58.3	96	57.2	0	0	---	0.00	30.136 
01:20	58.1	58.1	58.1	96	57.0	0	0	---	0.00	30.136 
01:25	58.0	58.0	58.0	95	56.6	0	0	---	0.00	30.136 
01:30	57.8	57.8	57.8	96	56.7	0	0	---	0.00	30.134 
01:35	57.6	57.6	57.6	96	56.5	0	0	---	0.00	30.134 
01:40	57.6	57.6	57.6	96	56.5	0	0	---	0.00	30.134 
01:45	57.5	57.5	57.5	96	56.4	0	0	---	0.00	30.133 
01:50	57.5	57.5	57.5	96	56.4	0	0	---	0.00	30.133 
01:55	57.5	57.5	57.5	96	56.4	0	0	---	0.00	30.133 
02:00	57.3	57.3	57.3	96	56.2	0	0	---	0.00	30.132 
02:05	57.3	57.3	57.3	96	56.2	0	0	---	0.00	30.132 
02:10	57.2	57.2	57.2	96	56.1	0	0	---	0.00	30.132 
02:15	57.0	57.0	57.0	96	55.9	0	0	---	0.00	30.128 
02:20	56.9	56.9	56.9	96	55.8	0	0	---	0.00	30.128 
02:25	56.7	56.7	56.7	96	55.6	0	0	---	0.00	30.128 
02:30	56.7	56.7	56.7	96	55.6	0	0	---	0.00	30.131 
02:35	56.6	56.6	56.6	96	55.5	0	0	---	0.00	30.131 
02:40	56.5	56.5	56.5	96	55.4	0	0	---	0.00	30.131 
02:45	56.5	56.5	56.5	96	55.4	0	0	---	0.00	30.130 
02:50	56.5	56.5	56.5	96	55.4	0	0	---	0.00	30.130 
02:55	56.6	56.6	56.6	96	55.5	0	0	---	0.00	30.130 
03:00	56.6	56.6	56.6	96	55.5	0	0	---	0.00	30.125 
03:05	56.7	56.7	56.7	96	55.6	0	0	---	0.00	30.125 
03:10	56.7	56.7	56.7	96	55.6	0	0	---	0.00	30.125 
03:15	56.7	56.7	56.7	96	55.6	0	0	---	0.00	30.124 
03:20	56.7	56.7	56.7	96	55.6	0	0	---	0.00	30.124 
03:25	56.7	56.7	56.7	96	55.6	0	0	---	0.00	30.124 
03:30	56.9	56.9	56.9	96	55.8	0	0	---	0.00	30.123 
03:35	56.9	56.9	56.9	96	55.8	0	0	---	0.00	30.123 
03:40	57.0	57.0	57.0	96	55.9	0	0	---	0.00	30.123 
03:45	57.0	57.0	57.0	96	55.9	0	0	---	0.00	30.121 
03:50	57.0	57.0	57.0	96	55.9	0	0	---	0.00	30.121 
03:55	57.0	57.0	57.0	96	55.9	0	0	---	0.00	30.121 
04:00	57.0	57.0	57.0	96	55.9	0	0	---	0.00	30.122 
04:05	57.0	57.0	57.0	96	55.9	0	0	---	0.00	30.122 
04:10	57.0	57.0	57.0	96	55.9	0	0	---	0.00	30.122 
04:15	57.0	57.0	57.0	96	55.9	0	0	---	0.00	30.121 
04:20	57.2	57.2	57.2	96	56.1	0	0	---	0.00	30.121 
04:25	57.2	57.2	57.2	96	56.1	0	0	---	0.00	30.121 
04:30	57.2	57.2	57.2	96	56.1	0	0	---	0.00	30.120 
04:35	57.2	57.2	57.2	96	56.1	0	0	---	0.00	30.120 
04:40	57.2	57.2	57.2	96	56.1	0	0	---	0.00	30.120 
04:45	57.2	57.2	57.2	96	56.1	0	0	---	0.00	30.120 
04:50	57.2	57.2	57.2	96	56.1	0	0	---	0.00	30.120 
04:55	57.2	57.2	57.2	96	56.1	0	0	---	0.00	30.120 
05:00	57.2	57.2	57.2	96	56.1	0	0	---	0.00	30.116 
05:05	57.3	57.3	57.3	96	56.2	0	0	---	0.00	30.116 
05:10	57.3	57.3	57.3	96	56.2	0	0	---	0.00	30.116 
05:15	57.5	57.5	57.5	96	56.4	0	0	---	0.00	30.116 
05:20	57.5	57.5	57.5	96	56.4	0	0	---	0.00	30.116 
05:25	57.5	57.5	57.5	96	56.4	0	0	---	0.00	30.116 
05:30	57.3	57.3	57.3	96	56.2	0	0	---	0.00	30.117 
05:35	57.3	57.3	57.3	96	56.2	0	0	---	0.00	30.117 
05:40	57.2	57.2	57.2	96	56.1	0	0	---	0.00	30.117 
05:45	57.0	57.0	57.0	96	55.9	0	0	---	0.00	30.124 
05:50	56.9	56.9	56.9	96	55.8	0	0	---	0.00	30.124 
05:55	57.0	57.0	57.0	96	55.9	0	0	---	0.00	30.124 
06:00	57.0	57.0	57.0	96	55.9	0	0	---	0.00	30.122 
06:05	57.0	57.0	57.0	96	55.9	0	0	---	0.00	30.122 
06:10	57.0	57.0	57.0	96	55.9	0	0	---	0.00	30.122 
06:15	56.9	56.9	56.9	96	55.8	0	0	---	0.00	30.126 
06:20	56.9	56.9	56.9	96	55.8	0	0	---	0.00	30.126 
06:25	56.7	56.7	56.7	96	55.6	0	0	---	0.00	30.126 
06:30	56.6	56.6	56.6	96	55.5	0	0	---	0.00	30.128 
06:35	56.5	56.5	56.5	96	55.4	0	0	---	0.00	30.128 
06:40	56.3	56.3	56.3	96	55.2	0	0	---	0.00	30.128 
06:45	56.3	56.3	56.3	96	55.2	0	0	---	0.00	30.135 
06:50	56.2	56.2	56.2	96	55.1	0	0	---	0.00	30.135 
06:55	56.0	56.0	56.0	96	54.9	0	0	---	0.00	30.135 
07:00	56.0	56.0	56.0	96	54.9	0	0	---	0.00	30.139 
07:05	56.0	56.0	56.0	96	54.9	0	0	---	0.00	30.139 
07:10	56.0	56.0	56.0	96	54.9	0	0	---	0.00	30.139 
07:15	56.3	56.3	56.3	96	55.2	0	0	---	0.00	30.148 
07:20	56.5	56.5	56.5	96	55.4	0	0	---	0.00	30.148 
07:25	56.6	56.6	56.6	97	55.8	0	0	---	0.00	30.148 
07:30	57.0	57.0	57.0	97	56.2	0	0	---	0.00	30.154 
07:35	57.5	57.5	57.5	97	56.7	0	0	---	0.00	30.154 
07:40	58.1	58.1	58.1	97	57.3	0	0	---	0.00	30.154 
07:45	58.6	58.6	58.6	97	57.7	0	0	---	0.00	30.159 
07:50	59.2	59.2	59.2	97	58.3	0	0	---	0.00	30.159 
07:55	59.6	59.6	59.6	97	58.7	0	1	292	0.00	30.159 
08:00	59.9	59.9	59.9	97	59.0	0	1	292	0.00	30.159 
08:05	60.2	60.2	60.2	97	59.3	0	1	292	0.00	30.159 
08:10	60.5	60.5	60.5	97	59.6	0	1	292	0.00	30.159 
08:15	60.9	60.9	60.9	96	59.7	0	2	292	0.00	30.161 
08:20	61.0	61.0	61.0	96	59.8	0	0	---	0.00	30.161 
08:25	61.6	61.6	61.6	96	60.4	0	0	---	0.00	30.161 
08:30	62.0	62.0	62.0	96	60.8	0	1	292	0.00	30.168 
08:35	62.4	62.4	62.4	95	60.9	0	1	292	0.00	30.168 
08:40	62.7	62.7	62.7	95	61.2	0	0	---	0.00	30.168 
08:45	63.1	63.1	63.1	94	61.3	0	2	292	0.00	30.168 
08:50	63.1	63.1	63.1	93	61.0	0	2	292	0.00	30.168 
08:55	62.7	62.7	62.7	93	60.6	0	1	292	0.00	30.168 
09:00	63.2	63.2	63.2	93	61.1	0	2	292	0.00	30.170 
09:05	63.7	63.7	63.7	91	61.0	0	2	292	0.00	30.170 
09:10	64.0	64.0	64.0	88	60.4	0	3	292	0.00	30.170 
09:15	64.5	64.5	64.5	89	61.2	0	1	292	0.00	30.170 
09:20	64.8	64.8	64.8	88	61.2	0	0	---	0.00	30.170 
09:25	65.3	65.3	65.3	86	61.0	0	1	292	0.00	30.170 
09:30	65.6	65.6	65.6	83	60.3	0	3	315	0.00	30.169 
09:35	66.1	66.1	66.1	80	59.7	1	2	315	0.00	30.169 
09:40	66.6	66.6	66.6	79	59.9	0	1	315	0.00	30.169 
09:45	67.3	67.3	67.3	81	61.3	0	0	---	0.00	30.162 
09:50	67.8	67.8	67.8	78	60.7	0	0	---	0.00	30.162 
09:55	67.9	67.9	67.9	76	60.0	0	2	0	0.00	30.162 
10:00	68.4	68.4	68.4	77	60.9	0	2	0	0.00	30.164 
10:05	68.4	68.4	68.4	76	60.5	0	0	---	0.00	30.164 
10:10	68.8	68.8	68.8	77	61.3	0	0	---	0.00	30.164 
10:15	69.8	69.8	69.8	72	60.4	0	1	0	0.00	30.164 
10:20	70.6	70.6	70.6	72	61.1	0	0	---	0.00	30.164 
10:25	71.1	71.1	71.1	69	60.4	0	1	0	0.00	30.164 
10:30	71.6	71.6	71.6	67	60.0	0	2	0	0.00	30.163 
10:35	71.1	71.1	71.1	67	59.6	1	3	22	0.00	30.163 
10:40	71.3	71.3	71.3	69	60.6	0	2	22	0.00	30.163 
10:45	71.1	71.1	71.1	66	59.2	0	3	45	0.00	30.158 
10:50	71.1	71.1	71.1	70	60.8	1	3	45	0.00	30.158 
10:55	71.1	71.1	71.1	70	60.8	1	3	45	0.00	30.158 
11:00	70.9	70.9	70.9	67	59.4	1	4	90	0.00	30.153 
11:05	70.3	70.3	70.3	69	59.6	0	1	90	0.00	30.153 
11:10	70.1	70.1	70.1	73	61.0	0	1	90	0.00	30.153 
11:15	70.8	70.8	70.8	69	60.1	1	3	90	0.00	30.152 
11:20	71.1	71.1	71.1	67	59.6	1	4	90	0.00	30.152 
11:25	71.5	71.5	71.5	63	58.2	2	5	90	0.00	30.152 
11:30	71.6	71.6	71.6	63	58.3	1	4	90	0.00	30.153 
11:35	72.1	72.1	72.1	65	59.7	0	2	90	0.00	30.153 
11:40	72.5	72.5	72.5	63	59.2	0	2	90	0.00	30.153 
11:45	73.0	73.0	73.0	66	61.0	0	1	90	0.00	30.154 
11:50	73.2	73.2	73.2	62	59.4	1	5	90	0.00	30.154 
11:55	73.3	73.3	73.3	59	58.1	1	4	90	0.00	30.154 
12:00	73.3	73.3	73.3	56	56.6	1	4	68	0.00	30.150 
12:05	72.7	72.7	72.7	58	57.1	2	4	68	0.00	30.150 
12:10	72.5	72.5	72.5	60	57.8	1	4	68	0.00	30.150 
12:15	72.7	72.7	72.7	61	58.5	1	5	90	0.00	30.148 
12:20	73.0	73.0	73.0	63	59.6	2	4	90	0.00	30.148 
12:25	73.0	73.0	73.0	63	59.6	1	5	90	0.00	30.148 
12:30	73.0	73.0	73.0	60	58.3	2	6	90	0.00	30.145 
12:35	72.7	72.7	72.7	60	58.0	1	4	68	0.00	30.145 
12:40	73.2	73.2	73.2	65	60.7	0	1	68	0.00	30.145 
12:45	73.5	73.5	73.5	60	58.7	0	2	68	0.00	30.143 
12:50	74.0	74.0	74.0	61	59.7	1	4	68	0.00	30.143 
12:55	74.2	74.2	74.2	56	57.5	2	6	68	0.00	30.143 
13:00	74.6	74.6	74.6	58	58.8	1	5	90	0.00	30.142 
13:05	74.4	74.4	74.4	57	58.2	2	6	68	0.00	30.142 
13:10	74.0	74.0	74.0	57	57.8	1	4	68	0.00	30.142 
13:15	74.4	74.4	74.4	58	58.6	1	5	112	0.00	30.141 
13:20	74.9	74.9	74.9	55	57.6	0	1	112	0.00	30.141 
13:25	75.4	75.4	77.7	56	58.6	0	2	112	0.00	30.141 
13:30	75.8	75.8	78.0	55	58.5	2	5	68	0.00	30.134 
13:35	75.6	75.6	77.8	57	59.3	1	4	90	0.00	30.134 
13:40	75.8	75.8	77.9	56	59.0	1	3	90	0.00	30.134 
13:45	76.1	76.1	78.1	56	59.2	0	2	135	0.00	30.134 
13:50	76.7	76.7	78.4	51	57.2	1	3	135	0.00	30.134 
13:55	76.8	76.8	78.6	54	58.9	2	4	90	0.00	30.134 
14:00	76.1	76.1	78.1	54	58.2	3	5	68	0.00	30.135 
14:05	76.3	76.3	78.2	52	57.4	1	4	135	0.00	30.135 
14:10	76.5	76.5	78.3	50	56.5	1	4	90	0.00	30.135 
14:15	76.7	76.7	78.5	54	58.8	0	1	90	0.00	30.129 
14:20	76.8	76.8	78.5	53	58.4	1	4	90	0.00	30.129 
14:25	76.8	76.8	78.6	55	59.4	2	6	90	0.00	30.129 
14:30	77.2	77.2	78.8	54	59.2	0	5	112	0.00	30.121 
14:35	77.9	77.9	79.2	51	58.3	1	3	112	0.00	30.121 
14:40	77.9	77.9	79.2	50	57.7	1	4	135	0.00	30.121 
14:45	77.7	77.7	79.0	50	57.6	0	2	90	0.00	30.117 
14:50	77.6	77.6	79.0	52	58.6	1	5	90	0.00	30.117 
14:55	78.1	78.1	79.5	54	60.1	0	2	90	0.00	30.117 
15:00	78.5	78.5	79.4	47	56.6	1	3	248	0.00	30.116 
15:05	78.5	78.5	79.4	47	56.6	1	3	248	0.00	30.116 
15:10	78.5	78.5	79.5	48	57.2	0	2	248	0.00	30.116 
15:15	79.0	79.0	80.2	53	60.4	0	1	248	0.00	30.113 
15:20	79.2	79.2	79.8	46	56.6	1	3	112	0.00	30.113 
15:25	78.8	78.8	79.7	48	57.4	0	2	112	0.00	30.113 
15:30	78.3	78.3	79.3	47	56.4	0	1	158	0.00	30.115 
15:35	77.9	77.9	79.2	50	57.7	0	2	158	0.00	30.115 
15:40	77.4	77.4	78.8	48	56.1	0	1	158	0.00	30.115 
15:45	76.7	76.7	78.4	48	55.5	0	2	158	0.00	30.112 
15:50	76.5	76.5	78.3	48	55.3	0	2	158	0.00	30.112 
15:55	76.3	76.3	78.2	48	55.1	0	2	135	0.00	30.112 
16:00	76.1	76.1	78.1	47	54.4	0	2	135	0.00	30.108 
16:05	76.5	76.5	78.3	48	55.3	0	1	135	0.00	30.108 
16:10	77.2	77.2	78.6	46	54.8	0	1	135	0.00	30.108 
16:15	77.9	77.9	79.1	48	56.6	0	1	135	0.00	30.105 
16:20	78.5	78.5	79.3	45	55.4	0	2	135	0.00	30.105 
16:25	78.6	78.6	79.5	48	57.2	0	1	135	0.00	30.105 
16:30	78.6	78.6	79.2	43	54.2	1	3	135	0.00	30.100 
16:35	78.1	78.1	79.2	47	56.2	0	1	135	0.00	30.100 
16:40	77.7	77.7	79.0	49	57.0	0	1	135	0.00	30.100 
16:45	77.6	77.6	78.7	44	53.9	1	3	135	0.00	30.097 
16:50	77.2	77.2	78.5	44	53.6	0	2	135	0.00	30.097 
16:55	77.2	77.2	78.6	47	55.4	0	2	135	0.00	30.097 
17:00	77.6	77.6	78.8	45	54.6	1	2	135	0.00	30.088 
17:05	77.9	77.9	78.8	43	53.6	1	3	135	0.00	30.088 
17:10	78.5	78.5	79.4	46	56.0	1	2	135	0.00	30.088 
17:15	79.0	79.0	79.6	44	55.2	0	2	135	0.00	30.086 
17:20	79.0	79.0	79.6	44	55.2	1	2	135	0.00	30.086 
17:25	78.8	78.8	79.5	45	55.6	0	1	135	0.00	30.086 
17:30	79.0	79.0	79.6	44	55.2	0	1	135	0.00	30.085 
17:35	79.0	79.0	79.6	44	55.2	0	3	135	0.00	30.085 
17:40	78.8	78.8	79.4	44	55.0	0	1	135	0.00	30.085 
17:45	78.3	78.3	79.2	45	55.2	0	1	135	0.00	30.085 
17:50	77.9	77.9	79.0	47	56.0	0	1	135	0.00	30.085 
17:55	77.7	77.7	78.9	46	55.2	0	2	135	0.00	30.085 
18:00	77.4	77.4	78.7	46	55.0	0	1	135	0.00	30.085 
18:05	77.4	77.4	78.6	45	54.4	0	1	135	0.00	30.085 
18:10	77.2	77.2	78.6	46	54.8	0	0	---	0.00	30.085 
18:15	77.0	77.0	78.5	46	54.6	0	0	---	0.00	30.087 
18:20	76.8	76.8	78.4	46	54.4	0	1	135	0.00	30.087 
18:25	76.7	76.7	78.4	48	55.5	0	0	---	0.00	30.087 
18:30	76.5	76.5	78.3	47	54.7	0	0	---	0.00	30.087 
18:35	76.3	76.3	78.2	48	55.1	0	1	135	0.00	30.087 
18:40	76.3	76.3	78.2	48	55.1	0	1	135	0.00	30.087 
18:45	76.1	76.1	78.1	50	56.1	1	2	135	0.00	30.088 
18:50	75.6	75.6	77.9	54	57.8	2	6	112	0.00	30.088 
18:55	74.2	74.2	74.2	55	57.0	3	6	135	0.00	30.088 
19:00	73.0	73.0	73.0	57	56.9	2	6	112	0.00	30.094 
19:05	72.0	72.0	72.0	59	56.9	2	6	90	0.00	30.094 
19:10	71.3	71.3	71.3	60	56.7	2	4	90	0.00	30.094 
19:15	70.8	70.8	70.8	63	57.6	1	4	90	0.00	30.095 
19:20	70.3	70.3	70.3	64	57.5	1	4	90	0.00	30.095 
19:25	69.9	69.9	69.9	65	57.6	2	6	90	0.00	30.095 
19:30	69.3	69.3	69.3	68	58.3	1	4	112	0.00	30.099 
19:35	68.9	68.9	68.9	70	58.7	1	3	112	0.00	30.099 
19:40	68.6	68.6	68.6	70	58.4	1	4	68	0.00	30.099 
19:45	68.4	68.4	68.4	70	58.2	0	4	90	0.00	30.102 
19:50	68.4	68.4	68.4	70	58.2	0	3	90	0.00	30.102 
19:55	68.4	68.4	68.4	72	59.0	1	3	90	0.00	30.102 
20:00	68.4	68.4	68.4	70	58.2	0	3	90	0.00	30.091 
20:05	68.3	68.3	68.3	71	58.5	0	2	90	0.00	30.091 
20:10	68.3	68.3	68.3	69	57.7	0	1	112	0.00	30.091 
20:15	68.3	68.3	68.3	69	57.7	0	1	112	0.00	30.089 
20:20	68.4	68.4	68.4	70	58.2	0	1	112	0.00	30.089 
20:25	68.3	68.3	68.3	71	58.5	0	2	112	0.00	30.089 
20:30	68.1	68.1	68.1	72	58.7	0	1	112	0.00	30.087 
20:35	68.1	68.1	68.1	72	58.7	0	1	112	0.00	30.087 
20:40	67.8	67.8	67.8	72	58.4	0	0	---	0.00	30.087 
20:45	67.8	67.8	67.8	72	58.4	0	0	---	0.00	30.087 
20:50	67.6	67.6	67.6	72	58.2	0	0	---	0.00	30.087 
20:55	67.4	67.4	67.4	71	57.7	0	0	---	0.00	30.087 
21:00	67.4	67.4	67.4	71	57.7	0	0	---	0.00	30.085 
21:05	67.4	67.4	67.4	70	57.3	0	0	---	0.00	30.085 
21:10	67.3	67.3	67.3	70	57.2	0	0	---	0.00	30.085 
21:15	67.3	67.3	67.3	69	56.8	0	0	---	0.00	30.080 
21:20	67.3	67.3	67.3	69	56.8	0	0	---	0.00	30.080 
21:25	67.1	67.1	67.1	69	56.6	0	0	---	0.00	30.080 
21:30	66.9	66.9	66.9	70	56.8	0	0	---	0.00	30.081 
21:35	66.9	66.9	66.9	70	56.8	0	0	---	0.00	30.081 
21:40	66.8	66.8	66.8	71	57.1	0	0	---	0.00	30.081 
21:45	66.6	66.6	66.6	72	57.3	0	0	---	0.00	30.088 
21:50	66.3	66.3	66.3	73	57.4	0	0	---	0.00	30.088 
21:55	66.1	66.1	66.1	73	57.2	0	0	---	0.00	30.088 
22:00	65.8	65.8	65.8	73	56.9	0	0	---	0.00	30.095 
22:05	65.6	65.6	65.6	74	57.1	0	0	---	0.00	30.095 
22:10	65.5	65.5	65.5	75	57.4	0	0	---	0.00	30.095 
22:15	65.2	65.2	65.2	77	57.8	0	0	---	0.00	30.100 
22:20	65.0	65.0	65.0	77	57.6	0	0	---	0.00	30.100 
22:25	64.7	64.7	64.7	79	58.0	0	0	---	0.00	30.100 
22:30	64.5	64.5	64.5	79	57.8	0	0	---	0.00	30.103 
22:35	64.3	64.3	64.3	80	58.0	0	0	---	0.00	30.103 
22:40	64.0	64.0	64.0	81	58.0	0	0	---	0.00	30.103 
22:45	63.9	63.9	63.9	81	57.9	0	0	---	0.00	30.109 
22:50	63.7	63.7	63.7	82	58.1	0	0	---	0.00	30.109 
22:55	63.5	63.5	63.5	82	57.9	0	0	---	0.00	30.109 
23:00	63.4	63.4	63.4	83	58.1	0	0	---	0.00	30.113 
23:05	63.2	63.2	63.2	84	58.3	0	0	---	0.00	30.113 
23:10	63.2	63.2	63.2	85	58.6	0	0	---	0.00	30.113 
23:15	63.2	63.2	63.2	85	58.6	0	0	---	0.00	30.112 
23:20	63.1	63.1	63.1	86	58.8	0	0	---	0.00	30.112 
23:25	63.1	63.1	63.1	86	58.8	0	0	---	0.00	30.112 
23:30	62.9	62.9	62.9	87	59.0	0	0	---	0.00	30.113 
23:35	62.9	62.9	62.9	87	59.0	0	0	---	0.00	30.113 
23:40	62.7	62.7	62.7	87	58.8	0	0	---	0.00	30.113 
23:45	62.6	62.6	62.6	88	59.0	0	0	---	0.00	30.115 
23:50	62.4	62.4	62.4	88	58.8	0	0	---	0.00	30.115 
23:55	62.3	62.3	62.3	88	58.7	0	1	112	0.00	30.115 

CoCoRaHS
IN-AL-39
A2 Web Hosting
Creative Commons License
GoDaddy
search engine by freefind advanced

loaded 2018-11-13 23:19:40 • last modified 2010-11-18 10:43:29
Privacy PolicyDisclaimer
• wx.awcolley.com is powered by PmWiki v.2002016 •
• all content (unless otherwise noted) © 2018 A W Colley